Bardwell, Ohio
Current Conditions -  °F | °C
As of 6:37 AM on Tuesday 21 Oct 2014 (Local Time) from KILN Reporting Station
Overcast Overcast  
Wind Chill: 50°   Ceiling: 2100
Heat Index: 50°   Visibility: 9mi
Dew Point: 45°   Wind: 10mph
Humidity: 83%   Direction: 320°NW
Pressure: 29.93"   Gusts: NA
Location:  39.064°N, 83.9197°W
Report Text: KILN 211037Z AUTO 32009KT 9SM FEW014 BKN021 OVC055 10/07 A2993 RMK AO2 T01000072
Loading
Personal Weather Stations






























Interactive Weather Map
Tropical Storm Tracking
New forecast layout! Learn more

10-Day Weather Forecast

Advertisements
Track Severe Weather on mobile